Terminal Aerodrome Forecast
Issued by NWS Amarillo, TX

Home | Current Version | Previous Version | Text Only | Print | Product List | Glossary On
Versions: 1 2 3 4 5 6 7 8 9 10 11 12 13 14 15 16 17 18 19 20 21
000
FTUS44 KAMA 261720
TAFGUY
TAF
KGUY 261720Z 2618/2718 14010KT P6SM SCT020 BKN300
     FM270000 17009KT P6SM VCSH SCT100 BKN300
      TEMPO 2700/2704 3SM -TSRA BKN050CB
     FM270700 20011KT P6SM BKN100=

USA.gov is the U.S. government's official web portal to all federal, state and local government web resources and services.